Time;durP1;ratioP1;P1;durP2;ratioP2;P2;SDS_P1;SDS_P2;PMS_P1;PMS_P2;Temp;Humidity;BMP_temperature;BMP_pressure;BME280_temperature;BME280_humidity;BME280_pressure;Samples;Min_cycle;Max_cycle;Signal;HPM_P1;HPM_P2
2021/12/18 00:01:08;;;;;;;33.33;31.77;;;;;;;;;;5095447;28;20221;-77
2021/12/18 00:03:35;;;;;;;34.77;33.13;;;;;;;;;;5095512;28;20668;-76
2021/12/18 00:06:02;;;;;;;32.00;30.50;;;;;;;;;;5095090;28;20280;-78
2021/12/18 00:08:29;;;;;;;34.97;32.70;;;;;;;;;;5095013;28;20626;-79
2021/12/18 00:10:56;;;;;;;33.80;32.13;;;;;;;;;;5095245;28;20250;-77
2021/12/18 00:13:24;;;;;;;33.40;31.80;;;;;;;;;;5094963;28;20747;-77
2021/12/18 00:15:51;;;;;;;34.23;32.43;;;;;;;;;;5095010;28;20190;-77
2021/12/18 00:18:18;;;;;;;32.30;30.70;;;;;;;;;;5095060;28;20243;-77
2021/12/18 00:20:45;;;;;;;32.63;31.03;;;;;;;;;;5094856;28;20281;-76
2021/12/18 00:23:12;;;;;;;31.17;29.67;;;;;;;;;;5095072;28;20276;-77
2021/12/18 00:25:38;;;;;;;29.90;28.40;;;;;;;;;;5095343;28;20193;-77
2021/12/18 00:28:05;;;;;;;31.37;29.77;;;;;;;;;;5094544;28;20225;-76
2021/12/18 00:30:34;;;;;;;31.90;30.30;;;;;;;;;;5094613;28;20285;-77
2021/12/18 00:33:01;;;;;;;32.43;30.83;;;;;;;;;;5094551;28;20582;-76
2021/12/18 00:35:28;;;;;;;32.80;30.77;;;;;;;;;;5095031;28;20221;-79
2021/12/18 00:37:55;;;;;;;33.07;31.20;;;;;;;;;;5095306;28;20225;-78
2021/12/18 00:40:25;;;;;;;30.80;29.20;;;;;;;;;;5094422;28;20198;-77
2021/12/18 00:42:58;;;;;;;28.70;27.30;;;;;;;;;;5094404;28;20280;-77
2021/12/18 00:45:25;;;;;;;31.80;29.87;;;;;;;;;;5094804;28;20271;-78
2021/12/18 00:47:53;;;;;;;31.70;30.10;;;;;;;;;;5094298;28;20251;-82
2021/12/18 00:50:21;;;;;;;30.53;28.87;;;;;;;;;;5094534;28;20659;-78
2021/12/18 00:52:48;;;;;;;28.03;26.63;;;;;;;;;;5094376;28;20194;-77
2021/12/18 00:55:15;;;;;;;29.97;28.37;;;;;;;;;;5093944;28;20631;-77
2021/12/18 00:57:44;;;;;;;33.07;31.27;;;;;;;;;;5094323;28;20226;-77
2021/12/18 01:00:12;;;;;;;33.03;31.33;;;;;;;;;;5094227;28;20675;-78
2021/12/18 01:02:43;;;;;;;31.10;29.43;;;;;;;;;;5093988;28;20198;-76
2021/12/18 01:05:11;;;;;;;31.67;29.70;;;;;;;;;;5093998;28;20666;-76
2021/12/18 01:07:39;;;;;;;32.77;31.07;;;;;;;;;;5094339;28;20198;-77
2021/12/18 01:10:18;;;;;;;32.57;30.77;;;;;;;;;;5094187;28;20276;-77
2021/12/18 01:12:48;;;;;;;32.23;30.57;;;;;;;;;;5093920;28;20235;-77
2021/12/18 01:15:19;;;;;;;30.37;28.77;;;;;;;;;;5093764;28;20625;-78
2021/12/18 01:23:15;;;;;;;28.13;26.73;;;;;;;;;;5093734;28;20177;-78
2021/12/18 01:25:42;;;;;;;31.17;29.37;;;;;;;;;;5093902;28;20255;-77
2021/12/18 01:28:09;;;;;;;30.07;28.57;;;;;;;;;;5094652;28;20190;-77
2021/12/18 01:30:36;;;;;;;32.57;30.73;;;;;;;;;;5093495;28;20236;-77
2021/12/18 01:33:03;;;;;;;29.70;28.10;;;;;;;;;;5093452;28;20233;-77
2021/12/18 01:35:31;;;;;;;30.97;29.27;;;;;;;;;;5093963;28;20229;-76
2021/12/18 01:37:58;;;;;;;26.73;25.37;;;;;;;;;;5093300;28;20320;-76
2021/12/18 01:40:25;;;;;;;27.13;25.83;;;;;;;;;;5092467;28;20209;-77
2021/12/18 01:43:42;;;;;;;24.40;23.20;;;;;;;;;;5093602;28;20197;-76
2021/12/18 01:51:47;;;;;;;23.70;22.50;;;;;;;;;;5093532;28;20192;-76
2021/12/18 01:54:14;;;;;;;27.37;25.97;;;;;;;;;;5092965;28;20321;-77
2021/12/18 01:56:41;;;;;;;26.83;25.33;;;;;;;;;;5093124;28;20277;-76
2021/12/18 01:59:08;;;;;;;26.37;25.00;;;;;;;;;;5093163;28;20237;-77
2021/12/18 02:01:34;;;;;;;27.87;26.57;;;;;;;;;;5093227;28;20636;-78
2021/12/18 02:04:01;;;;;;;28.67;27.37;;;;;;;;;;5093142;28;20193;-76
2021/12/18 02:06:28;;;;;;;29.00;27.70;;;;;;;;;;5092762;28;20284;-77
2021/12/18 02:08:56;;;;;;;30.23;28.60;;;;;;;;;;5093089;28;20292;-76
2021/12/18 02:11:30;;;;;;;28.43;26.77;;;;;;;;;;5093060;28;20657;-78
2021/12/18 02:19:49;;;;;;;28.03;26.53;;;;;;;;;;5092907;28;20267;-77
2021/12/18 02:22:18;;;;;;;31.93;30.03;;;;;;;;;;5092833;28;20538;-76
2021/12/18 02:24:45;;;;;;;31.00;29.50;;;;;;;;;;5092784;28;20194;-77
2021/12/18 02:27:12;;;;;;;28.70;27.10;;;;;;;;;;5092414;28;20668;-77
2021/12/18 02:29:40;;;;;;;27.87;26.37;;;;;;;;;;5092456;28;20694;-76
2021/12/18 02:32:07;;;;;;;29.87;28.27;;;;;;;;;;5092391;28;20295;-77
2021/12/18 02:34:37;;;;;;;28.00;26.50;;;;;;;;;;5092640;28;20247;-77
2021/12/18 02:37:06;;;;;;;26.73;25.40;;;;;;;;;;5092434;28;20189;-77
2021/12/18 02:40:44;;;;;;;27.70;26.47;;;;;;;;;;5092229;28;20268;-77
2021/12/18 02:42:33;;;;;;;26.23;24.83;;;;;;;;;;5092002;28;20216;-77
2021/12/18 02:45:00;;;;;;;27.67;26.47;;;;;;;;;;5092225;28;20642;-78
2021/12/18 02:47:27;;;;;;;25.20;23.83;;;;;;;;;;5092264;28;20656;-78
2021/12/18 02:49:54;;;;;;;27.30;25.90;;;;;;;;;;5092263;28;20296;-77
2021/12/18 02:52:27;;;;;;;27.80;26.20;;;;;;;;;;5092451;28;20232;-77
2021/12/18 02:54:55;;;;;;;30.13;28.63;;;;;;;;;;5091827;28;20790;-77
2021/12/18 02:57:21;;;;;;;28.40;27.00;;;;;;;;;;5092194;28;20247;-78
2021/12/18 02:59:49;;;;;;;27.63;26.13;;;;;;;;;;5092000;28;20750;-77
2021/12/18 03:02:16;;;;;;;27.60;26.30;;;;;;;;;;5092073;28;20201;-77
2021/12/18 03:04:47;;;;;;;29.30;27.90;;;;;;;;;;5092186;28;20193;-78
2021/12/18 03:07:16;;;;;;;28.07;26.67;;;;;;;;;;5092459;28;20186;-77
2021/12/18 03:18:58;;;;;;;27.57;26.23;;;;;;;;;;5092343;28;20641;-77
2021/12/18 03:23:57;;;;;;;27.83;26.50;;;;;;;;;;5111568;27;20571;-77
2021/12/18 03:26:24;;;;;;;28.33;26.93;;;;;;;;;;5110978;28;20282;-78
2021/12/18 03:28:50;;;;;;;31.30;29.70;;;;;;;;;;5111605;28;20268;-78
2021/12/18 03:31:17;;;;;;;28.43;26.93;;;;;;;;;;5110978;28;20220;-78
2021/12/18 03:33:44;;;;;;;31.47;29.97;;;;;;;;;;5111565;28;20232;-78
2021/12/18 03:36:10;;;;;;;32.80;31.27;;;;;;;;;;5116554;28;20196;-78
2021/12/18 03:38:37;;;;;;;30.87;29.17;;;;;;;;;;5117712;28;20193;-78
2021/12/18 03:41:05;;;;;;;31.90;30.10;;;;;;;;;;5121950;28;20291;-78
2021/12/18 03:43:32;;;;;;;29.87;28.27;;;;;;;;;;5112049;28;20284;-77
2021/12/18 03:45:59;;;;;;;29.53;27.93;;;;;;;;;;5112179;28;20198;-78
2021/12/18 03:48:25;;;;;;;28.90;27.40;;;;;;;;;;5112858;28;20190;-78
2021/12/18 03:50:52;;;;;;;30.43;28.83;;;;;;;;;;5113226;28;20235;-77
2021/12/18 03:53:19;;;;;;;32.03;30.13;;;;;;;;;;5115371;28;20201;-78
2021/12/18 03:55:46;;;;;;;27.20;25.73;;;;;;;;;;5122502;28;20189;-78
2021/12/18 03:58:14;;;;;;;28.17;26.67;;;;;;;;;;5130037;28;20193;-78
2021/12/18 04:00:41;;;;;;;28.70;27.00;;;;;;;;;;5127576;28;20204;-78
2021/12/18 04:03:08;;;;;;;30.63;29.23;;;;;;;;;;5125328;28;20252;-78
2021/12/18 04:05:35;;;;;;;26.67;25.37;;;;;;;;;;5121919;28;20200;-78
2021/12/18 04:08:08;;;;;;;29.37;28.07;;;;;;;;;;5117071;28;20246;-78
2021/12/18 04:10:36;;;;;;;28.77;27.47;;;;;;;;;;5117654;28;20573;-78
2021/12/18 04:13:02;;;;;;;25.33;24.13;;;;;;;;;;5117988;28;20259;-80
2021/12/18 04:15:31;;;;;;;26.23;25.03;;;;;;;;;;5114897;28;20232;-78
2021/12/18 04:17:57;;;;;;;23.57;22.57;;;;;;;;;;5115371;28;20189;-78
2021/12/18 04:20:25;;;;;;;25.03;23.93;;;;;;;;;;5116292;28;20628;-79
2021/12/18 04:22:52;;;;;;;25.23;24.13;;;;;;;;;;5125542;28;20243;-79
2021/12/18 04:25:19;;;;;;;25.17;24.07;;;;;;;;;;5114444;28;20216;-79
2021/12/18 04:27:45;;;;;;;29.53;27.80;;;;;;;;;;5116312;28;20199;-79
2021/12/18 04:30:13;;;;;;;25.73;24.53;;;;;;;;;;5112914;28;20200;-79
2021/12/18 04:32:41;;;;;;;28.90;27.60;;;;;;;;;;5113667;28;20232;-79
2021/12/18 04:35:08;;;;;;;27.90;26.50;;;;;;;;;;5095613;28;20193;-79
2021/12/18 04:37:35;;;;;;;29.13;27.83;;;;;;;;;;5095991;28;20197;-79
2021/12/18 04:40:02;;;;;;;28.90;27.60;;;;;;;;;;5095303;28;20198;-79
2021/12/18 04:42:29;;;;;;;28.00;26.70;;;;;;;;;;5096819;28;20221;-79
2021/12/18 04:44:55;;;;;;;28.30;27.00;;;;;;;;;;5094928;28;20200;-79
2021/12/18 04:47:22;;;;;;;28.53;27.10;;;;;;;;;;5095218;28;20194;-79
2021/12/18 04:49:50;;;;;;;28.17;26.87;;;;;;;;;;5095481;28;20232;-79
2021/12/18 04:52:17;;;;;;;27.10;25.80;;;;;;;;;;5095384;28;20294;-79
2021/12/18 04:54:45;;;;;;;28.20;26.80;;;;;;;;;;5096293;28;20255;-79
2021/12/18 04:57:11;;;;;;;30.70;29.20;;;;;;;;;;5096931;28;20190;-78
2021/12/18 04:59:43;;;;;;;27.90;26.60;;;;;;;;;;5096131;28;20563;-79
2021/12/18 05:02:10;;;;;;;29.83;28.43;;;;;;;;;;5098237;28;20584;-79
2021/12/18 05:04:37;;;;;;;29.40;28.00;;;;;;;;;;5098370;28;20225;-79
2021/12/18 05:07:05;;;;;;;28.03;26.73;;;;;;;;;;5096778;28;20190;-79
2021/12/18 05:09:32;;;;;;;27.23;25.93;;;;;;;;;;5097077;28;20194;-79
2021/12/18 05:11:58;;;;;;;23.93;22.83;;;;;;;;;;5094919;28;20281;-79
2021/12/18 05:14:25;;;;;;;26.90;25.67;;;;;;;;;;5095058;28;20565;-79
2021/12/18 05:16:52;;;;;;;28.37;27.07;;;;;;;;;;5094624;28;20360;-79
2021/12/18 05:19:19;;;;;;;26.13;24.93;;;;;;;;;;5094229;28;20202;-79
2021/12/18 05:21:46;;;;;;;23.43;22.33;;;;;;;;;;5094023;28;20229;-79
2021/12/18 05:24:14;;;;;;;24.70;23.60;;;;;;;;;;5094095;28;20316;-79
2021/12/18 05:26:41;;;;;;;22.33;21.33;;;;;;;;;;5094408;28;20228;-79
2021/12/18 05:29:07;;;;;;;23.13;22.13;;;;;;;;;;5094389;28;20194;-79
2021/12/18 05:31:35;;;;;;;22.40;21.40;;;;;;;;;;5094313;28;20229;-79
2021/12/18 05:34:03;;;;;;;20.47;19.57;;;;;;;;;;5093976;28;20233;-79
2021/12/18 05:36:40;;;;;;;20.40;19.50;;;;;;;;;;5094244;28;20247;-79
2021/12/18 05:39:07;;;;;;;20.63;19.73;;;;;;;;;;5094871;28;20193;-79
2021/12/18 05:41:36;;;;;;;19.23;18.37;;;;;;;;;;5094730;28;20284;-79
2021/12/18 05:44:03;;;;;;;18.83;18.03;;;;;;;;;;5094937;28;20230;-79
2021/12/18 05:46:30;;;;;;;18.37;17.57;;;;;;;;;;5093389;28;20282;-79
2021/12/18 05:48:57;;;;;;;16.70;15.90;;;;;;;;;;5093701;28;20225;-79
2021/12/18 05:51:24;;;;;;;17.70;16.90;;;;;;;;;;5093658;28;20678;-79
2021/12/18 05:53:50;;;;;;;18.60;17.80;;;;;;;;;;5093840;28;20236;-79
2021/12/18 05:56:17;;;;;;;18.40;17.60;;;;;;;;;;5093791;28;20648;-79
2021/12/18 05:58:45;;;;;;;19.50;18.60;;;;;;;;;;5093738;28;20190;-79
2021/12/18 06:01:13;;;;;;;18.07;17.27;;;;;;;;;;5093284;28;20285;-79
2021/12/18 06:03:40;;;;;;;18.33;17.53;;;;;;;;;;5093536;28;20259;-79
2021/12/18 06:06:07;;;;;;;20.47;19.57;;;;;;;;;;5093214;28;20672;-79
2021/12/18 06:08:35;;;;;;;18.63;17.73;;;;;;;;;;5093220;28;20198;-79
2021/12/18 06:11:07;;;;;;;21.20;20.17;;;;;;;;;;5093508;28;20190;-79
2021/12/18 06:13:34;;;;;;;20.00;19.00;;;;;;;;;;5093210;28;20260;-79
2021/12/18 06:16:05;;;;;;;23.03;21.83;;;;;;;;;;5093079;28;20671;-79
2021/12/18 06:18:32;;;;;;;24.30;23.00;;;;;;;;;;5093047;28;20186;-79
2021/12/18 06:20:59;;;;;;;25.83;24.43;;;;;;;;;;5093297;28;20198;-79
2021/12/18 06:23:26;;;;;;;22.90;21.50;;;;;;;;;;5092700;28;20243;-79
2021/12/18 06:25:52;;;;;;;23.10;21.70;;;;;;;;;;5093193;28;20190;-79
2021/12/18 06:28:19;;;;;;;25.30;24.00;;;;;;;;;;5092858;28;20292;-79
2021/12/18 06:30:46;;;;;;;24.33;23.13;;;;;;;;;;5093079;28;20277;-80
2021/12/18 06:33:14;;;;;;;23.53;22.43;;;;;;;;;;5092784;28;20671;-79
2021/12/18 06:35:40;;;;;;;22.03;21.03;;;;;;;;;;5092725;28;20285;-80
2021/12/18 06:38:07;;;;;;;24.10;23.00;;;;;;;;;;5092704;28;20289;-80
2021/12/18 06:40:34;;;;;;;24.27;23.07;;;;;;;;;;5092661;28;20621;-79
2021/12/18 06:43:01;;;;;;;24.10;23.00;;;;;;;;;;5092498;28;20272;-79
2021/12/18 06:45:27;;;;;;;20.10;19.10;;;;;;;;;;5092549;28;20683;-80
2021/12/18 06:47:54;;;;;;;23.27;22.00;;;;;;;;;;5092808;28;20273;-80
2021/12/18 06:50:23;;;;;;;23.77;22.67;;;;;;;;;;5093143;28;20235;-80
2021/12/18 06:52:50;;;;;;;24.37;23.30;;;;;;;;;;5092399;28;20569;-80
2021/12/18 06:55:16;;;;;;;24.20;23.10;;;;;;;;;;5092948;28;20273;-80
2021/12/18 06:57:43;;;;;;;24.90;23.80;;;;;;;;;;5093129;28;20255;-80
2021/12/18 07:00:11;;;;;;;25.83;24.63;;;;;;;;;;5093585;28;20681;-81
2021/12/18 07:02:38;;;;;;;25.00;23.80;;;;;;;;;;5093231;28;20710;-80
2021/12/18 07:05:05;;;;;;;27.37;26.07;;;;;;;;;;5093292;28;20233;-80
2021/12/18 07:07:34;;;;;;;31.87;30.17;;;;;;;;;;5093508;28;20240;-80
2021/12/18 07:10:00;;;;;;;32.03;30.33;;;;;;;;;;5094222;28;20679;-80
2021/12/18 07:12:27;;;;;;;32.87;31.07;;;;;;;;;;5093322;28;20232;-80
2021/12/18 07:14:54;;;;;;;33.30;31.50;;;;;;;;;;5093159;28;20251;-80
2021/12/18 07:17:20;;;;;;;35.00;32.90;;;;;;;;;;5092972;28;20193;-80
2021/12/18 07:19:47;;;;;;;36.80;34.40;;;;;;;;;;5093421;28;20717;-80
2021/12/18 07:22:14;;;;;;;34.33;32.13;;;;;;;;;;5094356;28;20312;-80
2021/12/18 07:24:42;;;;;;;35.20;33.00;;;;;;;;;;5094024;28;20312;-80
2021/12/18 07:27:09;;;;;;;36.20;34.00;;;;;;;;;;5094116;28;20193;-80
2021/12/18 07:29:35;;;;;;;36.17;34.07;;;;;;;;;;5093815;28;20202;-80
2021/12/18 07:32:02;;;;;;;34.27;32.37;;;;;;;;;;5094314;28;20198;-80
2021/12/18 07:34:29;;;;;;;33.80;32.00;;;;;;;;;;5094439;28;20236;-80
2021/12/18 07:36:56;;;;;;;31.97;30.10;;;;;;;;;;5094195;28;20237;-80
2021/12/18 07:39:22;;;;;;;32.90;30.90;;;;;;;;;;5095363;28;20254;-80
2021/12/18 07:41:50;;;;;;;33.13;31.30;;;;;;;;;;5096633;28;20284;-79
2021/12/18 07:44:17;;;;;;;27.73;26.33;;;;;;;;;;5094969;28;20234;-80
2021/12/18 07:46:44;;;;;;;28.03;26.63;;;;;;;;;;5094100;28;20194;-80
2021/12/18 07:49:11;;;;;;;26.33;25.03;;;;;;;;;;5094539;28;20244;-80
2021/12/18 07:51:38;;;;;;;26.13;24.83;;;;;;;;;;5094349;28;20193;-80
2021/12/18 07:54:05;;;;;;;26.50;25.10;;;;;;;;;;5094022;28;20320;-80
2021/12/18 07:56:32;;;;;;;27.90;26.43;;;;;;;;;;5091939;28;20664;-80
2021/12/18 07:59:00;;;;;;;27.20;25.70;;;;;;;;;;5092088;28;20229;-80
2021/12/18 08:01:27;;;;;;;29.10;27.33;;;;;;;;;;5091699;28;20193;-80
2021/12/18 08:03:53;;;;;;;29.30;27.70;;;;;;;;;;5091884;28;20235;-80
2021/12/18 08:06:21;;;;;;;28.80;27.20;;;;;;;;;;5091619;28;20237;-80
2021/12/18 08:08:47;;;;;;;29.87;28.17;;;;;;;;;;5093486;28;20280;-79
2021/12/18 08:11:14;;;;;;;28.90;27.30;;;;;;;;;;5095417;28;20288;-79
2021/12/18 08:13:41;;;;;;;27.77;26.27;;;;;;;;;;5095381;28;20237;-79
2021/12/18 08:16:09;;;;;;;28.20;26.70;;;;;;;;;;5095376;28;20285;-78
2021/12/18 08:18:36;;;;;;;30.43;28.53;;;;;;;;;;5095629;28;20206;-76
2021/12/18 08:21:03;;;;;;;28.90;27.30;;;;;;;;;;5095563;28;20194;-76
2021/12/18 08:23:29;;;;;;;31.93;30.27;;;;;;;;;;5094987;28;20237;-76
2021/12/18 08:25:56;;;;;;;31.50;29.90;;;;;;;;;;5095552;28;20269;-76
2021/12/18 08:28:23;;;;;;;31.13;29.53;;;;;;;;;;5094969;28;20262;-76
2021/12/18 08:30:49;;;;;;;30.07;28.57;;;;;;;;;;5095411;28;20198;-77
2021/12/18 08:33:18;;;;;;;31.33;29.73;;;;;;;;;;5094942;28;20280;-76
2021/12/18 08:35:44;;;;;;;30.53;29.03;;;;;;;;;;5094939;28;20686;-76
2021/12/18 08:38:11;;;;;;;30.47;29.07;;;;;;;;;;5095234;28;20225;-76
2021/12/18 08:40:38;;;;;;;30.13;28.80;;;;;;;;;;5094848;28;20198;-76
2021/12/18 08:43:05;;;;;;;31.87;30.37;;;;;;;;;;5095100;28;20259;-77
2021/12/18 08:45:32;;;;;;;32.40;30.90;;;;;;;;;;5094827;28;20233;-75
2021/12/18 08:47:58;;;;;;;31.80;30.30;;;;;;;;;;5095073;28;20193;-76
2021/12/18 08:50:26;;;;;;;29.47;27.97;;;;;;;;;;5094734;28;20233;-76
2021/12/18 08:52:53;;;;;;;28.50;26.90;;;;;;;;;;5094705;28;20663;-76
2021/12/18 08:55:21;;;;;;;32.80;30.90;;;;;;;;;;5094634;28;20579;-75
2021/12/18 08:57:48;;;;;;;33.20;31.20;;;;;;;;;;5094599;28;20194;-75
2021/12/18 09:00:17;;;;;;;33.17;30.97;;;;;;;;;;5094541;28;20637;-75
2021/12/18 09:02:45;;;;;;;31.17;29.00;;;;;;;;;;5094801;28;20221;-74
2021/12/18 09:05:13;;;;;;;30.30;28.30;;;;;;;;;;5094608;28;20647;-75
2021/12/18 09:07:41;;;;;;;30.57;28.57;;;;;;;;;;5094746;28;20197;-74
2021/12/18 09:10:08;;;;;;;29.30;27.40;;;;;;;;;;5094693;28;20201;-74
2021/12/18 09:12:35;;;;;;;32.00;29.80;;;;;;;;;;5094703;28;20234;-74
2021/12/18 09:15:02;;;;;;;35.37;33.10;;;;;;;;;;5093106;28;20198;-73
2021/12/18 09:17:29;;;;;;;31.90;29.90;;;;;;;;;;5094195;28;20201;-72
2021/12/18 09:19:55;;;;;;;34.43;32.13;;;;;;;;;;5094404;28;20193;-72
2021/12/18 09:22:22;;;;;;;32.53;30.33;;;;;;;;;;5094070;28;20229;-72
2021/12/18 09:24:50;;;;;;;37.77;35.20;;;;;;;;;;5094327;28;20233;-72
2021/12/18 09:27:17;;;;;;;37.70;35.07;;;;;;;;;;5094356;28;20197;-72
2021/12/18 09:29:44;;;;;;;42.43;39.53;;;;;;;;;;5094327;28;20724;-72
2021/12/18 09:32:11;;;;;;;47.83;44.73;;;;;;;;;;5094332;28;20613;-71
2021/12/18 09:34:37;;;;;;;48.63;45.00;;;;;;;;;;5093897;28;20243;-72
2021/12/18 09:37:04;;;;;;;41.33;38.63;;;;;;;;;;5094163;28;20233;-71
2021/12/18 09:39:31;;;;;;;50.77;46.63;;;;;;;;;;5093785;28;20233;-73
2021/12/18 09:41:59;;;;;;;44.90;42.00;;;;;;;;;;5094043;28;20289;-71
2021/12/18 09:44:27;;;;;;;48.40;45.40;;;;;;;;;;5093628;28;20261;-73
2021/12/18 09:46:54;;;;;;;45.93;42.70;;;;;;;;;;5093915;28;20248;-72
2021/12/18 09:49:21;;;;;;;38.10;35.47;;;;;;;;;;5093977;28;20247;-71
2021/12/18 09:51:48;;;;;;;34.67;32.27;;;;;;;;;;5093881;28;20277;-71
2021/12/18 09:54:15;;;;;;;51.37;39.10;;;;;;;;;;5093854;28;20190;-73
2021/12/18 09:56:42;;;;;;;41.83;39.13;;;;;;;;;;5093526;28;20684;-72
2021/12/18 09:59:11;;;;;;;46.00;42.90;;;;;;;;;;5094130;28;20303;-72
2021/12/18 10:01:37;;;;;;;36.20;34.00;;;;;;;;;;5093895;28;20219;-74
2021/12/18 10:04:05;;;;;;;41.40;38.50;;;;;;;;;;5093556;28;20251;-73
2021/12/18 10:06:35;;;;;;;41.20;38.40;;;;;;;;;;5093604;28;20281;-73
2021/12/18 10:09:03;;;;;;;35.63;33.43;;;;;;;;;;5093527;28;20182;-73
2021/12/18 10:11:29;;;;;;;39.90;37.10;;;;;;;;;;5093521;28;20630;-72
2021/12/18 10:13:58;;;;;;;40.63;38.03;;;;;;;;;;5093225;28;20233;-72
2021/12/18 10:16:28;;;;;;;38.03;35.60;;;;;;;;;;5093430;28;20296;-72
2021/12/18 10:18:55;;;;;;;36.73;34.63;;;;;;;;;;5093024;28;20589;-73
2021/12/18 10:21:24;;;;;;;41.53;39.20;;;;;;;;;;5093067;28;20194;-74
2021/12/18 10:23:51;;;;;;;43.83;41.33;;;;;;;;;;5092996;28;20261;-74
2021/12/18 10:26:31;;;;;;;37.83;35.63;;;;;;;;;;5093180;28;20251;-73
2021/12/18 10:28:58;;;;;;;46.13;43.43;;;;;;;;;;5092948;28;20603;-75
2021/12/18 10:31:41;;;;;;;45.37;42.77;;;;;;;;;;5092533;28;20247;-74
2021/12/18 10:34:14;;;;;;;43.33;40.93;;;;;;;;;;5093301;28;20615;-72
2021/12/18 10:36:41;;;;;;;42.90;40.40;;;;;;;;;;5092816;28;20193;-78
2021/12/18 10:39:08;;;;;;;35.03;33.03;;;;;;;;;;5093146;28;20229;-74
2021/12/18 10:41:35;;;;;;;46.23;43.63;;;;;;;;;;5093101;28;20190;-74
2021/12/18 10:44:03;;;;;;;46.87;43.80;;;;;;;;;;5092619;28;20259;-77
2021/12/18 10:46:31;;;;;;;33.57;31.67;;;;;;;;;;5092708;28;20190;-79
2021/12/18 10:49:01;;;;;;;39.23;37.13;;;;;;;;;;5092831;28;20194;-75
2021/12/18 10:51:29;;;;;;;33.50;31.60;;;;;;;;;;5092837;28;20225;-75
2021/12/18 10:53:59;;;;;;;34.83;32.93;;;;;;;;;;5092459;28;20233;-74
2021/12/18 10:56:31;;;;;;;32.20;30.43;;;;;;;;;;5092725;28;20636;-76
2021/12/18 10:58:58;;;;;;;28.37;26.77;;;;;;;;;;5092810;28;20211;-79
2021/12/18 11:01:25;;;;;;;35.70;33.70;;;;;;;;;;5092386;28;20194;-76
2021/12/18 11:03:52;;;;;;;42.17;39.97;;;;;;;;;;5092570;28;20267;-74
2021/12/18 11:06:21;;;;;;;38.80;36.70;;;;;;;;;;5092278;28;20193;-76
2021/12/18 11:08:53;;;;;;;40.33;38.13;;;;;;;;;;5092341;28;20744;-73
2021/12/18 11:14:04;;;;;;;45.27;42.87;;;;;;;;;;5092352;28;20582;-74
2021/12/18 11:16:35;;;;;;;39.37;37.30;;;;;;;;;;5092321;28;20229;-73
2021/12/18 11:19:03;;;;;;;47.87;45.27;;;;;;;;;;5092661;28;20247;-74
2021/12/18 11:21:31;;;;;;;45.73;43.23;;;;;;;;;;5092444;28;20284;-74
2021/12/18 11:24:01;;;;;;;45.33;42.93;;;;;;;;;;5092911;28;20186;-73
2021/12/18 11:26:33;;;;;;;38.10;36.10;;;;;;;;;;5092398;28;20205;-75
2021/12/18 11:29:02;;;;;;;36.50;34.60;;;;;;;;;;5092731;28;20247;-75
2021/12/18 11:31:29;;;;;;;29.47;28.07;;;;;;;;;;5092540;28;20717;-72
2021/12/18 11:33:56;;;;;;;25.50;24.30;;;;;;;;;;5092681;28;20286;-73
2021/12/18 11:36:22;;;;;;;31.67;30.00;;;;;;;;;;5092164;28;20715;-75
2021/12/18 11:38:52;;;;;;;27.83;26.37;;;;;;;;;;5092356;28;20193;-74
2021/12/18 11:41:20;;;;;;;31.60;30.00;;;;;;;;;;5092656;28;20194;-74
2021/12/18 11:43:47;;;;;;;22.73;21.83;;;;;;;;;;5093593;28;20223;-73
2021/12/18 11:46:31;;;;;;;22.13;21.13;;;;;;;;;;5096347;28;20331;-73
2021/12/18 11:48:59;;;;;;;21.83;20.87;;;;;;;;;;5096205;28;20193;-74
2021/12/18 11:51:26;;;;;;;22.90;21.90;;;;;;;;;;5095991;28;20672;-73
2021/12/18 11:53:54;;;;;;;25.37;24.17;;;;;;;;;;5096106;28;20189;-73
2021/12/18 11:56:21;;;;;;;27.73;26.33;;;;;;;;;;5095819;28;20198;-72
2021/12/18 11:58:48;;;;;;;30.73;29.13;;;;;;;;;;5095755;28;20567;-73
2021/12/18 12:01:17;;;;;;;33.90;32.00;;;;;;;;;;5095835;28;20229;-77
2021/12/18 12:03:44;;;;;;;35.33;33.33;;;;;;;;;;5095786;28;20739;-73
2021/12/18 12:06:24;;;;;;;34.47;32.47;;;;;;;;;;5095508;28;20233;-78
2021/12/18 12:08:53;;;;;;;35.80;33.80;;;;;;;;;;5095924;28;20198;-74
2021/12/18 12:11:23;;;;;;;29.93;28.23;;;;;;;;;;5095813;28;20219;-74
2021/12/18 12:14:00;;;;;;;34.73;32.73;;;;;;;;;;5095884;28;20186;-81
2021/12/18 12:16:45;;;;;;;36.20;34.20;;;;;;;;;;5095470;28;20201;-76
2021/12/18 12:19:13;;;;;;;29.90;28.20;;;;;;;;;;5095807;28;20233;-75
2021/12/18 12:21:40;;;;;;;32.07;30.37;;;;;;;;;;5095453;28;20194;-76
2021/12/18 12:24:10;;;;;;;30.40;28.80;;;;;;;;;;5095570;28;20243;-73
2021/12/18 12:26:38;;;;;;;27.10;25.80;;;;;;;;;;5095555;28;20276;-79
2021/12/18 12:29:05;;;;;;;27.20;25.90;;;;;;;;;;5095521;28;20236;-74
2021/12/18 12:31:32;;;;;;;30.70;29.10;;;;;;;;;;5095130;28;20271;-75
2021/12/18 12:34:13;;;;;;;28.97;27.23;;;;;;;;;;5095469;28;20194;-74
2021/12/18 12:36:45;;;;;;;29.17;27.47;;;;;;;;;;5094940;28;20197;-74
2021/12/18 12:39:13;;;;;;;30.37;28.67;;;;;;;;;;5095095;28;20562;-76
2021/12/18 12:41:47;;;;;;;28.20;26.60;;;;;;;;;;5094989;28;20229;-73
2021/12/18 12:44:31;;;;;;;27.27;25.67;;;;;;;;;;5094901;28;20190;-75
2021/12/18 12:47:13;;;;;;;25.97;24.47;;;;;;;;;;5094954;28;20186;-74
2021/12/18 12:49:40;;;;;;;25.37;23.87;;;;;;;;;;5094838;28;20221;-74
2021/12/18 12:52:08;;;;;;;29.73;28.17;;;;;;;;;;5094749;28;20193;-73
2021/12/18 12:54:42;;;;;;;28.50;27.00;;;;;;;;;;5094531;28;20198;-74
2021/12/18 12:57:25;;;;;;;33.40;31.50;;;;;;;;;;5094943;28;20194;-74
2021/12/18 12:59:54;;;;;;;29.07;27.37;;;;;;;;;;5085834;28;20244;-76
2021/12/18 13:02:21;;;;;;;27.97;26.37;;;;;;;;;;5094607;28;20688;-73
2021/12/18 13:04:48;;;;;;;30.03;28.33;;;;;;;;;;5094460;28;20700;-73
2021/12/18 13:07:15;;;;;;;29.10;27.40;;;;;;;;;;5094449;28;20190;-74
2021/12/18 13:09:44;;;;;;;31.47;29.67;;;;;;;;;;5094397;28;20590;-74
2021/12/18 13:12:12;;;;;;;35.20;33.30;;;;;;;;;;5094656;28;20197;-74
2021/12/18 13:14:39;;;;;;;31.73;29.53;;;;;;;;;;5094631;28;20198;-74
2021/12/18 13:17:18;;;;;;;35.73;33.53;;;;;;;;;;5094331;28;20209;-74
2021/12/18 13:19:52;;;;;;;37.47;35.17;;;;;;;;;;5094280;28;20239;-74
2021/12/18 13:22:21;;;;;;;40.07;37.57;;;;;;;;;;5094019;28;20790;-74
2021/12/18 13:25:00;;;;;;;39.07;36.67;;;;;;;;;;5094376;28;20280;-74
2021/12/18 13:27:27;;;;;;;35.93;33.73;;;;;;;;;;5094377;28;20574;-73
2021/12/18 13:30:09;;;;;;;28.47;26.97;;;;;;;;;;5094307;28;20237;-73
2021/12/18 13:32:37;;;;;;;29.67;28.13;;;;;;;;;;5093936;28;20200;-73
2021/12/18 13:35:13;;;;;;;27.33;25.93;;;;;;;;;;5094255;28;20205;-73
2021/12/18 13:37:39;;;;;;;26.23;24.93;;;;;;;;;;5093897;28;20186;-73
2021/12/18 13:40:14;;;;;;;25.83;24.47;;;;;;;;;;5094126;28;20197;-74
2021/12/18 13:42:40;;;;;;;26.73;25.33;;;;;;;;;;5094149;28;20264;-74
2021/12/18 13:45:07;;;;;;;27.93;26.43;;;;;;;;;;5093664;28;20226;-74
2021/12/18 13:47:36;;;;;;;27.20;25.80;;;;;;;;;;5093972;28;20198;-75
2021/12/18 13:50:14;;;;;;;29.17;27.67;;;;;;;;;;5093953;28;20201;-74
2021/12/18 13:52:42;;;;;;;29.23;27.63;;;;;;;;;;5093936;28;20227;-75
2021/12/18 13:55:36;;;;;;;28.33;26.83;;;;;;;;;;5093803;28;20272;-74
2021/12/18 13:58:05;;;;;;;24.67;23.17;;;;;;;;;;5068882;28;20251;-75
2021/12/18 14:00:46;;;;;;;27.13;25.63;;;;;;;;;;5093718;28;20250;-75
2021/12/18 14:03:17;;;;;;;25.43;24.03;;;;;;;;;;5093751;28;20269;-74
2021/12/18 14:05:45;;;;;;;27.93;26.23;;;;;;;;;;5093375;28;20267;-74
2021/12/18 14:08:13;;;;;;;28.17;26.47;;;;;;;;;;5092727;28;20229;-74
2021/12/18 14:10:39;;;;;;;27.37;25.60;;;;;;;;;;5093206;28;20194;-76
2021/12/18 14:13:06;;;;;;;27.50;25.90;;;;;;;;;;5093146;28;20255;-75
2021/12/18 14:15:33;;;;;;;26.23;24.63;;;;;;;;;;5093465;28;20194;-75
2021/12/18 14:18:00;;;;;;;26.37;24.77;;;;;;;;;;5093441;28;20193;-75
2021/12/18 14:20:28;;;;;;;26.50;24.90;;;;;;;;;;5093065;28;20289;-75
2021/12/18 14:23:10;;;;;;;26.80;25.20;;;;;;;;;;5092876;28;20290;-75
2021/12/18 14:25:36;;;;;;;25.63;24.13;;;;;;;;;;5093255;28;20221;-76
2021/12/18 14:28:03;;;;;;;24.27;22.87;;;;;;;;;;5093303;28;20202;-75
2021/12/18 14:30:32;;;;;;;25.60;24.10;;;;;;;;;;5093209;28;20194;-75
2021/12/18 14:33:05;;;;;;;27.90;26.30;;;;;;;;;;5093179;28;20202;-76
2021/12/18 14:35:32;;;;;;;27.77;26.17;;;;;;;;;;5092808;28;20194;-75
2021/12/18 14:38:01;;;;;;;28.33;26.73;;;;;;;;;;5093057;28;20190;-75
2021/12/18 14:40:28;;;;;;;32.53;30.83;;;;;;;;;;5092677;28;20744;-76
2021/12/18 14:42:56;;;;;;;32.13;30.33;;;;;;;;;;5092649;28;20667;-76
2021/12/18 14:45:25;;;;;;;31.30;29.50;;;;;;;;;;5092555;28;20225;-76
2021/12/18 14:47:52;;;;;;;34.17;32.07;;;;;;;;;;5092818;28;20189;-76
2021/12/18 14:50:20;;;;;;;38.90;36.30;;;;;;;;;;5092542;28;20233;-77
2021/12/18 14:52:55;;;;;;;34.00;31.90;;;;;;;;;;5092768;28;20276;-75
2021/12/18 14:55:25;;;;;;;37.47;35.07;;;;;;;;;;5092466;28;20233;-76